sensor_id;sensor_type;location;lat;lon;timestamp;P1;durP1;ratioP1;P2;durP2;ratioP2
38302;SDS011;24103;42.454;27.400;2023-06-22T00:00:48;7.03;;;5.88;;
38302;SDS011;24103;42.454;27.400;2023-06-22T00:03:14;8.13;;;6.60;;
38302;SDS011;24103;42.454;27.400;2023-06-22T00:05:39;6.45;;;5.95;;
38302;SDS011;24103;42.454;27.400;2023-06-22T00:08:05;7.90;;;7.22;;
38302;SDS011;24103;42.454;27.400;2023-06-22T00:10:31;6.90;;;6.32;;
38302;SDS011;24103;42.454;27.400;2023-06-22T00:12:56;7.60;;;6.78;;
38302;SDS011;24103;42.454;27.400;2023-06-22T00:15:22;8.85;;;7.78;;
38302;SDS011;24103;42.454;27.400;2023-06-22T00:17:48;8.55;;;7.80;;
38302;SDS011;24103;42.454;27.400;2023-06-22T00:20:15;11.77;;;7.95;;
38302;SDS011;24103;42.454;27.400;2023-06-22T00:22:43;9.13;;;8.27;;
38302;SDS011;24103;42.454;27.400;2023-06-22T00:25:09;8.75;;;7.55;;
38302;SDS011;24103;42.454;27.400;2023-06-22T00:27:35;10.15;;;8.30;;
38302;SDS011;24103;42.454;27.400;2023-06-22T00:30:01;8.40;;;7.30;;
38302;SDS011;24103;42.454;27.400;2023-06-22T00:32:26;10.20;;;8.98;;
38302;SDS011;24103;42.454;27.400;2023-06-22T00:34:52;8.70;;;8.00;;
38302;SDS011;24103;42.454;27.400;2023-06-22T00:37:17;9.02;;;7.97;;
38302;SDS011;24103;42.454;27.400;2023-06-22T00:39:43;9.32;;;8.40;;
38302;SDS011;24103;42.454;27.400;2023-06-22T00:42:09;10.40;;;9.35;;
38302;SDS011;24103;42.454;27.400;2023-06-22T00:44:35;8.80;;;8.00;;
38302;SDS011;24103;42.454;27.400;2023-06-22T00:47:01;9.32;;;8.52;;
38302;SDS011;24103;42.454;27.400;2023-06-22T00:49:28;10.30;;;8.05;;
38302;SDS011;24103;42.454;27.400;2023-06-22T00:51:54;9.15;;;8.27;;
38302;SDS011;24103;42.454;27.400;2023-06-22T00:54:20;8.23;;;7.45;;
38302;SDS011;24103;42.454;27.400;2023-06-22T00:56:58;9.57;;;8.68;;
38302;SDS011;24103;42.454;27.400;2023-06-22T00:59:24;9.23;;;8.43;;
38302;SDS011;24103;42.454;27.400;2023-06-22T01:01:51;10.68;;;8.15;;
38302;SDS011;24103;42.454;27.400;2023-06-22T01:04:17;10.25;;;9.05;;
38302;SDS011;24103;42.454;27.400;2023-06-22T01:06:58;9.77;;;8.85;;
38302;SDS011;24103;42.454;27.400;2023-06-22T01:09:37;11.43;;;8.85;;
38302;SDS011;24103;42.454;27.400;2023-06-22T01:12:14;12.43;;;9.30;;
38302;SDS011;24103;42.454;27.400;2023-06-22T01:14:50;10.48;;;8.63;;
38302;SDS011;24103;42.454;27.400;2023-06-22T01:17:23;10.43;;;8.40;;
38302;SDS011;24103;42.454;27.400;2023-06-22T01:19:53;9.98;;;8.35;;
38302;SDS011;24103;42.454;27.400;2023-06-22T01:22:21;10.68;;;8.45;;
38302;SDS011;24103;42.454;27.400;2023-06-22T01:30:16;12.70;;;7.75;;
38302;SDS011;24103;42.454;27.400;2023-06-22T01:32:44;9.55;;;8.55;;
38302;SDS011;24103;42.454;27.400;2023-06-22T01:35:10;11.88;;;7.93;;
38302;SDS011;24103;42.454;27.400;2023-06-22T01:37:38;8.68;;;7.90;;
38302;SDS011;24103;42.454;27.400;2023-06-22T01:40:04;11.02;;;9.10;;
38302;SDS011;24103;42.454;27.400;2023-06-22T01:42:32;14.90;;;8.98;;
38302;SDS011;24103;42.454;27.400;2023-06-22T01:44:59;8.77;;;7.93;;
38302;SDS011;24103;42.454;27.400;2023-06-22T01:47:25;11.38;;;9.52;;
38302;SDS011;24103;42.454;27.400;2023-06-22T01:49:52;9.20;;;8.20;;
38302;SDS011;24103;42.454;27.400;2023-06-22T01:52:18;8.40;;;7.63;;
38302;SDS011;24103;42.454;27.400;2023-06-22T01:54:46;9.35;;;8.45;;
38302;SDS011;24103;42.454;27.400;2023-06-22T01:57:11;10.25;;;8.07;;
38302;SDS011;24103;42.454;27.400;2023-06-22T01:59:39;8.15;;;7.35;;
38302;SDS011;24103;42.454;27.400;2023-06-22T02:02:09;8.80;;;8.00;;
38302;SDS011;24103;42.454;27.400;2023-06-22T02:04:44;10.85;;;9.73;;
38302;SDS011;24103;42.454;27.400;2023-06-22T02:07:14;8.27;;;7.32;;
38302;SDS011;24103;42.454;27.400;2023-06-22T02:09:43;12.20;;;7.20;;
38302;SDS011;24103;42.454;27.400;2023-06-22T02:12:13;9.25;;;8.18;;
38302;SDS011;24103;42.454;27.400;2023-06-22T02:14:44;10.32;;;7.47;;
38302;SDS011;24103;42.454;27.400;2023-06-22T02:17:11;9.82;;;7.90;;
38302;SDS011;24103;42.454;27.400;2023-06-22T02:19:37;10.73;;;8.40;;
38302;SDS011;24103;42.454;27.400;2023-06-22T02:22:05;10.40;;;7.25;;
38302;SDS011;24103;42.454;27.400;2023-06-22T02:24:31;9.23;;;8.20;;
38302;SDS011;24103;42.454;27.400;2023-06-22T02:26:58;11.27;;;9.02;;
38302;SDS011;24103;42.454;27.400;2023-06-22T02:29:25;9.70;;;8.32;;
38302;SDS011;24103;42.454;27.400;2023-06-22T02:31:51;8.50;;;7.68;;
38302;SDS011;24103;42.454;27.400;2023-06-22T02:34:17;8.18;;;7.47;;
38302;SDS011;24103;42.454;27.400;2023-06-22T02:36:47;9.07;;;7.40;;
38302;SDS011;24103;42.454;27.400;2023-06-22T02:39:25;8.95;;;8.02;;
38302;SDS011;24103;42.454;27.400;2023-06-22T02:41:51;10.40;;;7.43;;
38302;SDS011;24103;42.454;27.400;2023-06-22T02:44:18;9.98;;;7.72;;
38302;SDS011;24103;42.454;27.400;2023-06-22T02:46:44;8.90;;;8.10;;
38302;SDS011;24103;42.454;27.400;2023-06-22T02:49:11;8.90;;;7.30;;
38302;SDS011;24103;42.454;27.400;2023-06-22T02:51:38;8.10;;;7.22;;
38302;SDS011;24103;42.454;27.400;2023-06-22T02:54:05;8.13;;;7.38;;
38302;SDS011;24103;42.454;27.400;2023-06-22T02:56:31;8.55;;;6.93;;
38302;SDS011;24103;42.454;27.400;2023-06-22T02:58:56;8.50;;;7.25;;
38302;SDS011;24103;42.454;27.400;2023-06-22T03:01:26;7.90;;;6.90;;
38302;SDS011;24103;42.454;27.400;2023-06-22T03:03:53;7.63;;;6.82;;
38302;SDS011;24103;42.454;27.400;2023-06-22T03:06:20;9.80;;;6.88;;
38302;SDS011;24103;42.454;27.400;2023-06-22T03:08:51;11.30;;;7.85;;
38302;SDS011;24103;42.454;27.400;2023-06-22T03:11:16;8.75;;;6.45;;
38302;SDS011;24103;42.454;27.400;2023-06-22T03:13:42;11.70;;;7.05;;
38302;SDS011;24103;42.454;27.400;2023-06-22T03:16:08;8.13;;;5.95;;
38302;SDS011;24103;42.454;27.400;2023-06-22T03:18:34;9.07;;;5.65;;
38302;SDS011;24103;42.454;27.400;2023-06-22T03:20:59;9.38;;;5.72;;
38302;SDS011;24103;42.454;27.400;2023-06-22T03:23:27;7.90;;;5.40;;
38302;SDS011;24103;42.454;27.400;2023-06-22T03:25:52;7.70;;;5.47;;
38302;SDS011;24103;42.454;27.400;2023-06-22T03:28:20;8.65;;;5.10;;
38302;SDS011;24103;42.454;27.400;2023-06-22T03:30:46;6.10;;;5.18;;
38302;SDS011;24103;42.454;27.400;2023-06-22T03:33:12;6.22;;;5.63;;
38302;SDS011;24103;42.454;27.400;2023-06-22T03:35:37;6.22;;;5.40;;
38302;SDS011;24103;42.454;27.400;2023-06-22T03:38:03;10.05;;;6.30;;
38302;SDS011;24103;42.454;27.400;2023-06-22T03:40:29;7.82;;;5.82;;
38302;SDS011;24103;42.454;27.400;2023-06-22T03:42:55;12.25;;;5.32;;
38302;SDS011;24103;42.454;27.400;2023-06-22T03:45:20;9.18;;;5.90;;
38302;SDS011;24103;42.454;27.400;2023-06-22T03:47:46;9.90;;;6.13;;
38302;SDS011;24103;42.454;27.400;2023-06-22T03:50:11;11.55;;;5.95;;
38302;SDS011;24103;42.454;27.400;2023-06-22T03:52:37;10.32;;;6.03;;
38302;SDS011;24103;42.454;27.400;2023-06-22T03:55:03;8.35;;;5.65;;
38302;SDS011;24103;42.454;27.400;2023-06-22T03:57:28;11.15;;;5.20;;
38302;SDS011;24103;42.454;27.400;2023-06-22T03:59:56;8.02;;;5.00;;
38302;SDS011;24103;42.454;27.400;2023-06-22T04:02:22;6.78;;;4.15;;
38302;SDS011;24103;42.454;27.400;2023-06-22T04:04:47;6.90;;;4.72;;
38302;SDS011;24103;42.454;27.400;2023-06-22T04:07:12;10.38;;;5.40;;
38302;SDS011;24103;42.454;27.400;2023-06-22T04:09:38;6.63;;;4.50;;
38302;SDS011;24103;42.454;27.400;2023-06-22T04:12:04;4.47;;;3.90;;
38302;SDS011;24103;42.454;27.400;2023-06-22T04:14:30;11.88;;;6.07;;
38302;SDS011;24103;42.454;27.400;2023-06-22T04:16:55;6.10;;;3.80;;
38302;SDS011;24103;42.454;27.400;2023-06-22T04:19:21;7.00;;;4.13;;
38302;SDS011;24103;42.454;27.400;2023-06-22T04:21:46;8.77;;;4.00;;
38302;SDS011;24103;42.454;27.400;2023-06-22T04:24:14;7.93;;;3.97;;
38302;SDS011;24103;42.454;27.400;2023-06-22T04:26:39;6.88;;;4.38;;
38302;SDS011;24103;42.454;27.400;2023-06-22T04:29:07;5.82;;;3.97;;
38302;SDS011;24103;42.454;27.400;2023-06-22T04:31:34;5.10;;;3.67;;
38302;SDS011;24103;42.454;27.400;2023-06-22T04:34:03;8.30;;;4.10;;
38302;SDS011;24103;42.454;27.400;2023-06-22T04:36:35;5.53;;;3.40;;
38302;SDS011;24103;42.454;27.400;2023-06-22T04:39:09;11.73;;;3.90;;
38302;SDS011;24103;42.454;27.400;2023-06-22T04:41:36;11.98;;;3.72;;
38302;SDS011;24103;42.454;27.400;2023-06-22T04:44:12;7.38;;;3.67;;
38302;SDS011;24103;42.454;27.400;2023-06-22T04:46:49;7.77;;;3.53;;
38302;SDS011;24103;42.454;27.400;2023-06-22T04:49:27;8.48;;;3.33;;
38302;SDS011;24103;42.454;27.400;2023-06-22T04:52:04;4.32;;;2.88;;
38302;SDS011;24103;42.454;27.400;2023-06-22T04:54:31;8.30;;;3.63;;
38302;SDS011;24103;42.454;27.400;2023-06-22T04:57:03;9.82;;;4.25;;
38302;SDS011;24103;42.454;27.400;2023-06-22T04:59:34;7.97;;;4.22;;
38302;SDS011;24103;42.454;27.400;2023-06-22T05:02:01;6.72;;;3.45;;
38302;SDS011;24103;42.454;27.400;2023-06-22T05:04:28;6.05;;;3.50;;
38302;SDS011;24103;42.454;27.400;2023-06-22T05:06:56;6.10;;;3.30;;
38302;SDS011;24103;42.454;27.400;2023-06-22T05:09:22;7.43;;;3.10;;
38302;SDS011;24103;42.454;27.400;2023-06-22T05:11:48;6.35;;;3.70;;
38302;SDS011;24103;42.454;27.400;2023-06-22T05:14:17;5.15;;;3.30;;
38302;SDS011;24103;42.454;27.400;2023-06-22T05:16:43;5.45;;;3.30;;
38302;SDS011;24103;42.454;27.400;2023-06-22T05:19:09;7.43;;;3.60;;
38302;SDS011;24103;42.454;27.400;2023-06-22T05:21:35;3.90;;;2.97;;
38302;SDS011;24103;42.454;27.400;2023-06-22T05:24:01;9.57;;;3.17;;
38302;SDS011;24103;42.454;27.400;2023-06-22T05:26:31;6.25;;;3.42;;
38302;SDS011;24103;42.454;27.400;2023-06-22T05:28:58;3.58;;;2.72;;
38302;SDS011;24103;42.454;27.400;2023-06-22T05:31:24;7.03;;;3.08;;
38302;SDS011;24103;42.454;27.400;2023-06-22T05:33:51;4.43;;;3.17;;
38302;SDS011;24103;42.454;27.400;2023-06-22T05:36:18;6.13;;;3.42;;
38302;SDS011;24103;42.454;27.400;2023-06-22T05:38:50;5.50;;;3.42;;
38302;SDS011;24103;42.454;27.400;2023-06-22T05:41:16;8.45;;;3.40;;
38302;SDS011;24103;42.454;27.400;2023-06-22T05:43:41;4.97;;;3.35;;
38302;SDS011;24103;42.454;27.400;2023-06-22T05:46:07;5.65;;;2.88;;
38302;SDS011;24103;42.454;27.400;2023-06-22T05:48:32;5.85;;;3.58;;
38302;SDS011;24103;42.454;27.400;2023-06-22T05:50:58;5.35;;;3.35;;
38302;SDS011;24103;42.454;27.400;2023-06-22T05:53:23;3.50;;;3.10;;
38302;SDS011;24103;42.454;27.400;2023-06-22T05:55:49;4.25;;;3.20;;
38302;SDS011;24103;42.454;27.400;2023-06-22T05:58:15;6.32;;;3.60;;
38302;SDS011;24103;42.454;27.400;2023-06-22T06:00:40;5.10;;;3.20;;
38302;SDS011;24103;42.454;27.400;2023-06-22T06:03:07;6.50;;;3.30;;
38302;SDS011;24103;42.454;27.400;2023-06-22T06:05:33;5.72;;;3.47;;
38302;SDS011;24103;42.454;27.400;2023-06-22T06:07:59;4.35;;;3.25;;
38302;SDS011;24103;42.454;27.400;2023-06-22T06:10:26;8.38;;;3.72;;
38302;SDS011;24103;42.454;27.400;2023-06-22T06:12:52;5.40;;;3.80;;
38302;SDS011;24103;42.454;27.400;2023-06-22T06:15:18;6.03;;;3.78;;
38302;SDS011;24103;42.454;27.400;2023-06-22T06:18:01;5.85;;;4.18;;
38302;SDS011;24103;42.454;27.400;2023-06-22T06:20:30;3.92;;;3.58;;
38302;SDS011;24103;42.454;27.400;2023-06-22T06:22:56;6.35;;;3.10;;
38302;SDS011;24103;42.454;27.400;2023-06-22T06:25:22;3.97;;;3.17;;
38302;SDS011;24103;42.454;27.400;2023-06-22T06:27:49;4.50;;;3.03;;
38302;SDS011;24103;42.454;27.400;2023-06-22T06:30:18;3.70;;;3.30;;
38302;SDS011;24103;42.454;27.400;2023-06-22T06:32:44;3.05;;;2.85;;
38302;SDS011;24103;42.454;27.400;2023-06-22T06:35:11;4.03;;;3.63;;
38302;SDS011;24103;42.454;27.400;2023-06-22T06:37:39;3.53;;;3.22;;
38302;SDS011;24103;42.454;27.400;2023-06-22T06:40:06;4.05;;;3.38;;
38302;SDS011;24103;42.454;27.400;2023-06-22T06:42:35;4.13;;;2.78;;
38302;SDS011;24103;42.454;27.400;2023-06-22T06:45:07;4.10;;;2.10;;
38302;SDS011;24103;42.454;27.400;2023-06-22T06:47:33;4.22;;;2.35;;
38302;SDS011;24103;42.454;27.400;2023-06-22T06:49:58;2.95;;;2.33;;
38302;SDS011;24103;42.454;27.400;2023-06-22T06:52:25;2.50;;;2.30;;
38302;SDS011;24103;42.454;27.400;2023-06-22T06:54:50;2.67;;;2.47;;
38302;SDS011;24103;42.454;27.400;2023-06-22T06:57:17;3.05;;;2.55;;
38302;SDS011;24103;42.454;27.400;2023-06-22T06:59:43;2.67;;;2.40;;
38302;SDS011;24103;42.454;27.400;2023-06-22T07:02:09;2.42;;;2.22;;
38302;SDS011;24103;42.454;27.400;2023-06-22T07:04:34;4.13;;;2.88;;
38302;SDS011;24103;42.454;27.400;2023-06-22T07:07:01;2.47;;;2.15;;
38302;SDS011;24103;42.454;27.400;2023-06-22T07:09:27;2.55;;;2.35;;
38302;SDS011;24103;42.454;27.400;2023-06-22T07:11:52;4.18;;;2.55;;
38302;SDS011;24103;42.454;27.400;2023-06-22T07:14:36;3.67;;;2.30;;
38302;SDS011;24103;42.454;27.400;2023-06-22T07:17:01;2.72;;;2.53;;
38302;SDS011;24103;42.454;27.400;2023-06-22T07:19:28;3.30;;;2.78;;
38302;SDS011;24103;42.454;27.400;2023-06-22T07:21:54;3.38;;;2.78;;
38302;SDS011;24103;42.454;27.400;2023-06-22T07:24:20;3.13;;;2.92;;
38302;SDS011;24103;42.454;27.400;2023-06-22T07:26:47;2.67;;;2.47;;
38302;SDS011;24103;42.454;27.400;2023-06-22T07:29:15;2.80;;;2.55;;
38302;SDS011;24103;42.454;27.400;2023-06-22T07:31:41;3.55;;;2.58;;
38302;SDS011;24103;42.454;27.400;2023-06-22T07:37:28;4.30;;;2.67;;
38302;SDS011;24103;42.454;27.400;2023-06-22T07:39:55;3.55;;;3.15;;
38302;SDS011;24103;42.454;27.400;2023-06-22T07:42:24;3.58;;;2.95;;
38302;SDS011;24103;42.454;27.400;2023-06-22T07:44:50;2.78;;;2.58;;
38302;SDS011;24103;42.454;27.400;2023-06-22T07:47:16;4.13;;;3.08;;
38302;SDS011;24103;42.454;27.400;2023-06-22T07:49:44;6.88;;;3.13;;
38302;SDS011;24103;42.454;27.400;2023-06-22T07:52:10;5.10;;;2.95;;
38302;SDS011;24103;42.454;27.400;2023-06-22T07:54:36;4.05;;;3.65;;
38302;SDS011;24103;42.454;27.400;2023-06-22T07:57:01;4.40;;;4.03;;
38302;SDS011;24103;42.454;27.400;2023-06-22T07:59:27;4.20;;;3.80;;
38302;SDS011;24103;42.454;27.400;2023-06-22T08:01:53;5.72;;;3.30;;
38302;SDS011;24103;42.454;27.400;2023-06-22T08:04:20;3.35;;;3.05;;
38302;SDS011;24103;42.454;27.400;2023-06-22T08:06:46;3.03;;;2.80;;
38302;SDS011;24103;42.454;27.400;2023-06-22T08:09:12;3.45;;;3.17;;
38302;SDS011;24103;42.454;27.400;2023-06-22T08:11:37;3.20;;;3.00;;
38302;SDS011;24103;42.454;27.400;2023-06-22T08:14:03;2.33;;;2.20;;
38302;SDS011;24103;42.454;27.400;2023-06-22T08:16:30;5.10;;;3.63;;
38302;SDS011;24103;42.454;27.400;2023-06-22T08:18:56;3.17;;;2.95;;
38302;SDS011;24103;42.454;27.400;2023-06-22T08:21:22;6.50;;;3.50;;
38302;SDS011;24103;42.454;27.400;2023-06-22T08:23:48;4.70;;;3.45;;
38302;SDS011;24103;42.454;27.400;2023-06-22T08:26:14;3.42;;;3.22;;
38302;SDS011;24103;42.454;27.400;2023-06-22T08:28:41;3.50;;;3.30;;
38302;SDS011;24103;42.454;27.400;2023-06-22T08:31:10;3.38;;;3.15;;
38302;SDS011;24103;42.454;27.400;2023-06-22T08:35:02;6.30;;;3.70;;
38302;SDS011;24103;42.454;27.400;2023-06-22T08:38:09;4.43;;;3.60;;
38302;SDS011;24103;42.454;27.400;2023-06-22T08:40:36;4.57;;;4.18;;
38302;SDS011;24103;42.454;27.400;2023-06-22T08:43:02;3.60;;;3.10;;
38302;SDS011;24103;42.454;27.400;2023-06-22T08:45:27;4.50;;;4.10;;
38302;SDS011;24103;42.454;27.400;2023-06-22T08:47:53;12.07;;;4.25;;
38302;SDS011;24103;42.454;27.400;2023-06-22T08:50:18;4.50;;;4.10;;
38302;SDS011;24103;42.454;27.400;2023-06-22T08:52:44;6.30;;;4.57;;
38302;SDS011;24103;42.454;27.400;2023-06-22T08:55:10;4.57;;;4.05;;
38302;SDS011;24103;42.454;27.400;2023-06-22T08:57:36;5.40;;;4.40;;
38302;SDS011;24103;42.454;27.400;2023-06-22T09:00:05;7.75;;;4.55;;
38302;SDS011;24103;42.454;27.400;2023-06-22T09:02:45;4.13;;;3.83;;
38302;SDS011;24103;42.454;27.400;2023-06-22T09:05:12;4.07;;;3.63;;
38302;SDS011;24103;42.454;27.400;2023-06-22T09:07:37;4.10;;;3.80;;
38302;SDS011;24103;42.454;27.400;2023-06-22T09:10:03;4.57;;;4.13;;
38302;SDS011;24103;42.454;27.400;2023-06-22T09:12:30;4.28;;;3.83;;
38302;SDS011;24103;42.454;27.400;2023-06-22T09:14:55;4.85;;;4.07;;
38302;SDS011;24103;42.454;27.400;2023-06-22T09:17:22;4.07;;;3.78;;
38302;SDS011;24103;42.454;27.400;2023-06-22T09:19:50;6.72;;;4.13;;
38302;SDS011;24103;42.454;27.400;2023-06-22T09:22:16;4.88;;;3.85;;
38302;SDS011;24103;42.454;27.400;2023-06-22T09:24:41;4.82;;;3.83;;
38302;SDS011;24103;42.454;27.400;2023-06-22T09:27:07;4.40;;;3.95;;
38302;SDS011;24103;42.454;27.400;2023-06-22T09:29:32;4.95;;;3.83;;
38302;SDS011;24103;42.454;27.400;2023-06-22T09:32:00;5.35;;;4.28;;
38302;SDS011;24103;42.454;27.400;2023-06-22T09:34:28;5.25;;;3.38;;
38302;SDS011;24103;42.454;27.400;2023-06-22T09:36:56;5.00;;;4.43;;
38302;SDS011;24103;42.454;27.400;2023-06-22T09:39:22;5.22;;;4.15;;
38302;SDS011;24103;42.454;27.400;2023-06-22T09:41:47;5.45;;;3.92;;
38302;SDS011;24103;42.454;27.400;2023-06-22T09:44:13;9.00;;;4.05;;
38302;SDS011;24103;42.454;27.400;2023-06-22T09:46:39;6.47;;;4.20;;
38302;SDS011;24103;42.454;27.400;2023-06-22T09:49:04;5.43;;;4.32;;
38302;SDS011;24103;42.454;27.400;2023-06-22T09:51:30;4.88;;;4.38;;
38302;SDS011;24103;42.454;27.400;2023-06-22T09:53:55;4.55;;;4.10;;
38302;SDS011;24103;42.454;27.400;2023-06-22T09:56:21;5.60;;;4.45;;
38302;SDS011;24103;42.454;27.400;2023-06-22T09:58:47;5.97;;;4.53;;
38302;SDS011;24103;42.454;27.400;2023-06-22T10:01:16;6.95;;;5.13;;
38302;SDS011;24103;42.454;27.400;2023-06-22T10:03:42;5.43;;;5.03;;
38302;SDS011;24103;42.454;27.400;2023-06-22T10:06:09;6.82;;;4.15;;
38302;SDS011;24103;42.454;27.400;2023-06-22T10:08:35;4.40;;;4.00;;
38302;SDS011;24103;42.454;27.400;2023-06-22T10:11:01;5.00;;;4.45;;
38302;SDS011;24103;42.454;27.400;2023-06-22T10:13:27;5.18;;;4.22;;
38302;SDS011;24103;42.454;27.400;2023-06-22T10:15:52;6.70;;;3.78;;
38302;SDS011;24103;42.454;27.400;2023-06-22T10:18:18;4.20;;;3.80;;
38302;SDS011;24103;42.454;27.400;2023-06-22T10:20:47;5.05;;;3.92;;
38302;SDS011;24103;42.454;27.400;2023-06-22T10:23:16;5.75;;;3.92;;
38302;SDS011;24103;42.454;27.400;2023-06-22T10:25:42;6.75;;;5.65;;
38302;SDS011;24103;42.454;27.400;2023-06-22T10:28:07;13.70;;;5.05;;
38302;SDS011;24103;42.454;27.400;2023-06-22T10:30:33;5.53;;;4.30;;
38302;SDS011;24103;42.454;27.400;2023-06-22T10:36:21;5.50;;;4.40;;
38302;SDS011;24103;42.454;27.400;2023-06-22T10:42:09;6.75;;;4.88;;
38302;SDS011;24103;42.454;27.400;2023-06-22T10:44:35;6.75;;;4.22;;
38302;SDS011;24103;42.454;27.400;2023-06-22T10:47:00;4.22;;;3.92;;
38302;SDS011;24103;42.454;27.400;2023-06-22T10:49:26;4.38;;;4.07;;
38302;SDS011;24103;42.454;27.400;2023-06-22T10:51:51;7.97;;;4.05;;
38302;SDS011;24103;42.454;27.400;2023-06-22T10:57:56;6.32;;;4.60;;
38302;SDS011;24103;42.454;27.400;2023-06-22T11:00:22;6.30;;;4.00;;
38302;SDS011;24103;42.454;27.400;2023-06-22T11:02:51;4.60;;;3.67;;
38302;SDS011;24103;42.454;27.400;2023-06-22T11:05:17;3.80;;;3.50;;
38302;SDS011;24103;42.454;27.400;2023-06-22T11:11:04;8.98;;;4.50;;
38302;SDS011;24103;42.454;27.400;2023-06-22T11:13:30;4.15;;;3.85;;
38302;SDS011;24103;42.454;27.400;2023-06-22T11:15:57;6.05;;;4.03;;
38302;SDS011;24103;42.454;27.400;2023-06-22T11:18:23;4.60;;;4.00;;
38302;SDS011;24103;42.454;27.400;2023-06-22T11:20:48;4.55;;;4.25;;
38302;SDS011;24103;42.454;27.400;2023-06-22T11:23:14;4.20;;;3.80;;
38302;SDS011;24103;42.454;27.400;2023-06-22T11:25:40;5.35;;;4.25;;
38302;SDS011;24103;42.454;27.400;2023-06-22T11:28:07;5.88;;;4.63;;
38302;SDS011;24103;42.454;27.400;2023-06-22T11:30:34;5.03;;;3.90;;
38302;SDS011;24103;42.454;27.400;2023-06-22T11:33:00;8.10;;;4.30;;
38302;SDS011;24103;42.454;27.400;2023-06-22T11:35:25;5.93;;;4.22;;
38302;SDS011;24103;42.454;27.400;2023-06-22T11:37:51;4.60;;;4.18;;
38302;SDS011;24103;42.454;27.400;2023-06-22T11:40:18;7.97;;;4.68;;
38302;SDS011;24103;42.454;27.400;2023-06-22T11:42:43;8.27;;;4.50;;
38302;SDS011;24103;42.454;27.400;2023-06-22T11:45:09;4.68;;;4.10;;
38302;SDS011;24103;42.454;27.400;2023-06-22T11:47:35;6.60;;;4.70;;
38302;SDS011;24103;42.454;27.400;2023-06-22T11:50:01;5.40;;;4.53;;
38302;SDS011;24103;42.454;27.400;2023-06-22T11:52:28;4.38;;;3.97;;
38302;SDS011;24103;42.454;27.400;2023-06-22T11:54:53;5.20;;;3.67;;
38302;SDS011;24103;42.454;27.400;2023-06-22T11:57:19;5.47;;;3.65;;
38302;SDS011;24103;42.454;27.400;2023-06-22T11:59:47;4.55;;;4.15;;
38302;SDS011;24103;42.454;27.400;2023-06-22T12:02:13;6.32;;;4.20;;
38302;SDS011;24103;42.454;27.400;2023-06-22T12:04:38;5.47;;;3.45;;
38302;SDS011;24103;42.454;27.400;2023-06-22T12:07:04;4.55;;;3.90;;
38302;SDS011;24103;42.454;27.400;2023-06-22T12:09:29;4.72;;;3.95;;
38302;SDS011;24103;42.454;27.400;2023-06-22T12:11:55;4.55;;;4.18;;
38302;SDS011;24103;42.454;27.400;2023-06-22T12:14:21;4.25;;;3.83;;
38302;SDS011;24103;42.454;27.400;2023-06-22T12:16:46;4.35;;;3.92;;
38302;SDS011;24103;42.454;27.400;2023-06-22T12:19:12;5.70;;;4.13;;
38302;SDS011;24103;42.454;27.400;2023-06-22T12:21:38;4.22;;;3.95;;
38302;SDS011;24103;42.454;27.400;2023-06-22T12:24:05;5.10;;;3.40;;
38302;SDS011;24103;42.454;27.400;2023-06-22T12:26:31;4.75;;;3.63;;
38302;SDS011;24103;42.454;27.400;2023-06-22T12:28:57;4.47;;;4.07;;
38302;SDS011;24103;42.454;27.400;2023-06-22T12:31:24;4.00;;;3.63;;
38302;SDS011;24103;42.454;27.400;2023-06-22T12:33:50;5.10;;;3.67;;
38302;SDS011;24103;42.454;27.400;2023-06-22T12:36:16;5.75;;;4.18;;
38302;SDS011;24103;42.454;27.400;2023-06-22T12:38:41;4.18;;;3.80;;
38302;SDS011;24103;42.454;27.400;2023-06-22T12:41:07;4.10;;;3.70;;
38302;SDS011;24103;42.454;27.400;2023-06-22T12:43:32;5.80;;;3.75;;
38302;SDS011;24103;42.454;27.400;2023-06-22T12:45:58;4.30;;;3.90;;
38302;SDS011;24103;42.454;27.400;2023-06-22T12:48:25;4.28;;;3.35;;
38302;SDS011;24103;42.454;27.400;2023-06-22T12:50:53;6.25;;;4.32;;
38302;SDS011;24103;42.454;27.400;2023-06-22T12:53:19;5.72;;;4.38;;
38302;SDS011;24103;42.454;27.400;2023-06-22T12:55:45;4.35;;;3.60;;
38302;SDS011;24103;42.454;27.400;2023-06-22T12:58:11;5.78;;;4.22;;
38302;SDS011;24103;42.454;27.400;2023-06-22T13:00:37;6.10;;;3.72;;
38302;SDS011;24103;42.454;27.400;2023-06-22T13:03:03;3.97;;;3.50;;
38302;SDS011;24103;42.454;27.400;2023-06-22T13:05:35;4.65;;;3.90;;
38302;SDS011;24103;42.454;27.400;2023-06-22T13:08:01;6.40;;;3.65;;
38302;SDS011;24103;42.454;27.400;2023-06-22T13:10:26;4.30;;;3.63;;
38302;SDS011;24103;42.454;27.400;2023-06-22T13:12:52;4.18;;;3.78;;
38302;SDS011;24103;42.454;27.400;2023-06-22T13:15:25;5.30;;;3.88;;
38302;SDS011;24103;42.454;27.400;2023-06-22T13:17:50;5.35;;;4.32;;
38302;SDS011;24103;42.454;27.400;2023-06-22T13:20:16;5.03;;;3.80;;
38302;SDS011;24103;42.454;27.400;2023-06-22T13:22:42;6.00;;;3.97;;
38302;SDS011;24103;42.454;27.400;2023-06-22T13:25:08;5.30;;;3.90;;
38302;SDS011;24103;42.454;27.400;2023-06-22T13:27:41;3.78;;;3.47;;
38302;SDS011;24103;42.454;27.400;2023-06-22T13:30:07;4.32;;;3.92;;
38302;SDS011;24103;42.454;27.400;2023-06-22T13:32:33;3.83;;;3.53;;
38302;SDS011;24103;42.454;27.400;2023-06-22T13:34:59;3.80;;;3.50;;
38302;SDS011;24103;42.454;27.400;2023-06-22T13:37:25;5.57;;;4.05;;
38302;SDS011;24103;42.454;27.400;2023-06-22T13:39:51;5.72;;;3.47;;
38302;SDS011;24103;42.454;27.400;2023-06-22T13:42:17;3.63;;;3.20;;
38302;SDS011;24103;42.454;27.400;2023-06-22T13:44:42;4.55;;;4.15;;
38302;SDS011;24103;42.454;27.400;2023-06-22T13:47:08;3.72;;;3.42;;
38302;SDS011;24103;42.454;27.400;2023-06-22T13:49:33;3.30;;;3.00;;
38302;SDS011;24103;42.454;27.400;2023-06-22T13:51:59;5.47;;;3.70;;
38302;SDS011;24103;42.454;27.400;2023-06-22T13:54:25;3.83;;;3.53;;
38302;SDS011;24103;42.454;27.400;2023-06-22T13:56:50;3.50;;;3.17;;
38302;SDS011;24103;42.454;27.400;2023-06-22T13:59:16;6.40;;;3.72;;
38302;SDS011;24103;42.454;27.400;2023-06-22T14:01:42;5.13;;;3.20;;
38302;SDS011;24103;42.454;27.400;2023-06-22T14:04:08;7.47;;;3.85;;
38302;SDS011;24103;42.454;27.400;2023-06-22T14:06:34;5.13;;;3.50;;
38302;SDS011;24103;42.454;27.400;2023-06-22T14:08:59;6.85;;;3.33;;
38302;SDS011;24103;42.454;27.400;2023-06-22T14:11:25;3.60;;;2.78;;
38302;SDS011;24103;42.454;27.400;2023-06-22T14:13:50;4.05;;;3.35;;
38302;SDS011;24103;42.454;27.400;2023-06-22T14:16:16;4.05;;;3.53;;
38302;SDS011;24103;42.454;27.400;2023-06-22T14:18:42;4.47;;;3.78;;
38302;SDS011;24103;42.454;27.400;2023-06-22T14:21:07;3.85;;;3.47;;
38302;SDS011;24103;42.454;27.400;2023-06-22T14:23:33;3.72;;;3.42;;
38302;SDS011;24103;42.454;27.400;2023-06-22T14:25:58;4.07;;;3.42;;
38302;SDS011;24103;42.454;27.400;2023-06-22T14:28:24;5.65;;;4.10;;
38302;SDS011;24103;42.454;27.400;2023-06-22T14:30:49;4.13;;;3.50;;
38302;SDS011;24103;42.454;27.400;2023-06-22T14:33:15;3.80;;;3.50;;
38302;SDS011;24103;42.454;27.400;2023-06-22T14:35:40;4.93;;;3.67;;
38302;SDS011;24103;42.454;27.400;2023-06-22T14:38:06;4.22;;;3.55;;
38302;SDS011;24103;42.454;27.400;2023-06-22T14:40:31;4.13;;;3.72;;
38302;SDS011;24103;42.454;27.400;2023-06-22T14:42:57;4.05;;;3.63;;
38302;SDS011;24103;42.454;27.400;2023-06-22T14:45:23;3.60;;;3.30;;
38302;SDS011;24103;42.454;27.400;2023-06-22T14:47:49;5.10;;;4.20;;
38302;SDS011;24103;42.454;27.400;2023-06-22T14:50:14;5.00;;;3.92;;
38302;SDS011;24103;42.454;27.400;2023-06-22T14:52:40;5.32;;;4.07;;
38302;SDS011;24103;42.454;27.400;2023-06-22T14:55:06;4.10;;;3.67;;